Texas General Land Office
 Texas General Land Office
 George P. Bush, Commissioner

 Oil Spill Prevention
 & Response

Texas Automated Buoy System
Real Time Ocean Observations
Supporting Oil Spill Prevention and
Response since 1995
Geochemical and Environmental Research Group

TABS Buoy B -- Texas Automated Buoy System

TABS Buoy B Conditions at 06/25/2019 11:30 UTC (06/25/2019 06:30 CDT)
28° 58.9386'N   94° 53.9436'W
AA3900 DCS - sensor depth 2m
Anemometer height: 4m
Water Depth: 63 feet (19 meters)
Speed: 25.88 cm/s (0.50 kts) Direction: 49 °T (NE) Water Temp: 28°C (83 °F)
System Voltage: 12.2 V Signal Strength: -2.5 dB Ping Count: 118
Wind: 5.9 m/s (11.5 kts)
          From 153°T (SSE)
Air Temp: 28 °C (82 °F)
Relative Humidity:  99 %
Pressure: 1012.9 mb (29.91 inHg)

  


IMPORTANT: Notice to Mariners


Today's Velocity Data (download)

   Date   |  Time  |   East |   North|   Speed|  Dir | WaterT |
          |  (UTC) |  (cm/s)|  (cm/s)|  (cm/s)| (°T) |  (°C)  |
==========+========+========+========+========+======+========+
06/25/2019 00:00:00     9.80    17.12    19.73   29.8   28.3
06/25/2019 00:30:00    11.85    12.45    17.19   43.6   28.2
06/25/2019 01:00:00     9.12     8.46    12.44   47.2   28.2
06/25/2019 01:30:00    10.00     7.20    12.32   54.2   28.2
06/25/2019 02:00:00    13.16     8.13    15.47   58.3   28.2
06/25/2019 02:30:00    20.38    14.61    25.08   54.4   28.2
06/25/2019 03:00:00    22.01    12.96    25.54   59.5   28.2
06/25/2019 03:30:00    22.62    15.08    27.19   56.3   28.2
06/25/2019 04:00:00    25.68    14.10    29.30   61.2   28.2
06/25/2019 04:30:00    27.77    14.09    31.14   63.1   28.1
06/25/2019 05:00:00    24.35    13.67    27.92   60.7   28.1
06/25/2019 05:30:00    30.20    15.56    33.97   62.7   28.2
06/25/2019 06:00:00    30.42    16.62    34.66   61.3   28.2
06/25/2019 06:30:00    34.14    21.68    40.44   57.6   28.2
06/25/2019 07:00:00    39.17    16.24    42.40   67.5   28.3
06/25/2019 07:30:00    33.57    17.20    37.72   62.9   28.3
06/25/2019 08:00:00    30.56    17.35    35.14   60.4   28.4
06/25/2019 08:30:00    32.54    21.97    39.26   56.0   28.4
06/25/2019 09:00:00    27.70    17.22    32.62   58.1   28.4
06/25/2019 09:30:00    30.96    18.73    36.18   58.8   28.4
06/25/2019 10:00:00    33.92    21.76    40.30   57.3   28.4
06/25/2019 10:30:00    29.48    17.54    34.30   59.2   28.4
06/25/2019 11:00:00    15.16     8.46    17.36   60.8   28.4
06/25/2019 11:30:00    19.65    16.84    25.88   49.4   28.4



       
 

Today's Temperature - Salinity Data     (Download)


   Date   |  Time  |   Temp |   Cond |Salinity| Density|SoundVel|
          |  (UTC) |   (°C) | (ms/cm)|        | kg/m^3 |  (m/s) |
==========+========+========+========+========+========+========+
06/25/2019 00:00:00    28.07    48.11    29.34     0.00     0.00
06/25/2019 00:30:00    28.04    48.15    29.38     0.00     0.00
06/25/2019 01:00:00    28.02    48.17    29.41     0.00     0.00
06/25/2019 01:30:00    28.02    48.17    29.41     0.00     0.00
06/25/2019 02:00:00    28.01    48.14    29.39     0.00     0.00
06/25/2019 02:30:00    28.04    48.12    29.36     0.00     0.00
06/25/2019 03:00:00    28.01    48.13    29.39     0.00     0.00
06/25/2019 03:30:00    28.00    48.13    29.39     0.00     0.00
06/25/2019 04:00:00    27.98    48.13    29.40     0.00     0.00
06/25/2019 04:30:00    27.96    48.21    29.47     0.00     0.00
06/25/2019 05:00:00    27.98    48.08    29.37     0.00     0.00
06/25/2019 05:30:00    28.04    47.84    29.16     0.00     0.00
06/25/2019 06:00:00    28.04    47.86    29.19     0.00     0.00
06/25/2019 06:30:00    28.08    47.64    29.01     0.00     0.00
06/25/2019 07:00:00    28.15    47.51    28.88     0.00     0.00
06/25/2019 07:30:00    28.18    47.42    28.80     0.00     0.00
06/25/2019 08:00:00    28.20    47.31    28.71     0.00     0.00
06/25/2019 08:30:00    28.22    47.24    28.65     0.00     0.00
06/25/2019 09:00:00    28.22    47.17    28.60     0.00     0.00
06/25/2019 09:30:00    28.23    47.11    28.56     0.00     0.00
06/25/2019 10:00:00    28.23    47.11    28.56     0.00     0.00
06/25/2019 10:30:00    28.23    47.09    28.54     0.00     0.00
06/25/2019 11:00:00    28.19    47.12    28.59     0.00     0.00
06/25/2019 11:30:00    28.18    47.15    28.62     0.00     0.00